Home > Products > Valid Products > TAF

000
FTUS41 KILN 252100 AAA
TAFCVG
TAF AMD
KCVG 252100Z 2521/2624 26010KT P6SM FEW250
     FM260000 30004KT P6SM SKC
     FM261300 30007KT P6SM SKC=



000
FTUS41 KILN 251700
TAFCMH
TAF
KCMH 251731Z 2518/2618 23012G18KT P6SM SCT028
     FM260100 29005KT P6SM SKC
     FM261300 29007KT P6SM SKC=



000
FTUS41 KILN 251700
TAFCVG
TAF
KCVG 251731Z 2518/2624 22009KT P6SM SCT023
     FM260000 30004KT P6SM SKC
     FM261300 30007KT P6SM SKC=



000
FTUS41 KILN 251700
TAFILN
TAF
KILN 251731Z 2518/2618 24012G18KT P6SM SCT022
     FM260100 30003KT P6SM SKC
      TEMPO 2607/2611 3SM BR
     FM261300 30006KT P6SM SKC=



000
FTUS41 KILN 251700
TAFLUK
TAF
KLUK 251731Z 2518/2618 23009KT P6SM SCT024
     FM260000 30004KT P6SM SKC
     FM260600 00000KT 4SM BR SKC
      TEMPO 2607/2611 1/2SM FG BKN002
     FM261300 30006KT P6SM SKC=



000
FTUS41 KILN 251700
TAFDAY
TAF
KDAY 251731Z 2518/2618 24012G18KT P6SM SCT030
     FM260000 30006KT P6SM SKC
     FM261300 30008KT P6SM SKC=



000
FTUS41 KILN 251700
TAFLCK
TAF
KLCK 251731Z 2518/2618 22014G19KT P6SM SCT030
     FM260100 29004KT P6SM SKC
     FM261300 29006KT P6SM SKC=



000
FTUS41 KILN 251600 AAC
TAFDAY
TAF AMD
KDAY 251605Z 2516/2612 24012KT P6SM FEW018 SCT040 BKN200
     FM251900 29012G18KT P6SM SCT040
     FM260000 30010KT P6SM SKC=



000
FTUS41 KILN 251600 AAB
TAFILN
TAF AMD
KILN 251605Z 2516/2612 25012KT P6SM OVC024
     FM252000 29012G18KT P6SM SCT040
     FM260100 30008KT P6SM SKC=



000
FTUS41 KILN 251400 AAB
TAFLUK
TAF AMD
KLUK 251458Z 2515/2612 24008KT P6SM OVC030
     FM252000 28010G18KT P6SM SCT040
     FM260000 30006KT P6SM SKC=



000
FTUS41 KILN 251400 AAA
TAFILN
TAF AMD
KILN 251457Z 2515/2612 24013KT 6SM HZ BKN028 OVC040
     FM252000 29012G18KT P6SM SCT040
     FM260100 30008KT P6SM SKC=



000
FTUS41 KILN 251400 AAB
TAFCVG
TAF AMD
KCVG 251457Z 2515/2618 22011KT P6SM BKN025 OVC060
     FM252000 28010G18KT P6SM SCT040
     FM260000 30006KT P6SM SKC=



000
FTUS41 KILN 251400 AAB
TAFDAY
TAF AMD
KDAY 251437Z 2515/2612 22012KT P6SM OVC030
     FM251900 29012G18KT P6SM SCT040
     FM260000 30010KT P6SM SKC=



000
FTUS41 KILN 251400 AAA
TAFDAY
TAF AMD
KDAY 251425Z 2514/2612 23011KT P6SM OVC027
     FM251900 29012G18KT P6SM SCT040
     FM260000 30010KT P6SM SKC=



000
FTUS41 KILN 251400 AAB
TAFILN
TAF AMD
KILN 251405Z 2514/2612 22009KT P6SM OVC045
     FM251500 23012G18KT P6SM BKN035
     FM252000 29012G18KT P6SM SCT040
     FM260100 30008KT P6SM SKC=



000
FTUS41 KILN 251400 AAA
TAFCVG
TAF AMD
KCVG 251405Z 2514/2618 21011KT P6SM BKN029
     FM252000 28010G18KT P6SM SCT040
     FM260000 30006KT P6SM SKC=



000
FTUS41 KILN 251300 AAA
TAFLUK
TAF AMD
KLUK 251302Z 2513/2612 VRB03KT 5SM BR OVC050
     FM251400 23010KT P6SM BKN035
     FM252000 28010G18KT P6SM SCT040
     FM260000 30006KT P6SM SKC=



000
FTUS41 KILN 251300 AAA
TAFILN
TAF AMD
KILN 251302Z 2513/2612 22006KT 5SM BR BKN060
     FM251500 23012G18KT P6SM BKN035
     FM252000 29012G18KT P6SM SCT040
     FM260100 30008KT P6SM SKC=



000
FTUS41 KILN 251100
TAFCVG
TAF
KCVG 251136Z 2512/2618 23004KT P6SM SCT090 BKN250
     FM251400 23010KT P6SM BKN035
     FM252000 28010G18KT P6SM SCT040
     FM260000 30006KT P6SM SKC=



000
FTUS41 KILN 251100
TAFLCK
TAF
KLCK 251136Z 2512/2612 22005KT P6SM SCT040 BKN100
     FM251500 25012G18KT P6SM BKN035
     FM252100 28012G18KT P6SM SCT040
     FM260100 30010KT P6SM SKC=



000
FTUS41 KILN 251100
TAFILN
TAF
KILN 251136Z 2512/2612 22004KT P6SM FEW040 BKN100
     FM251500 23012G18KT P6SM BKN035
     FM252000 29012G18KT P6SM SCT040
     FM260100 30008KT P6SM SKC=



000
FTUS41 KILN 251100
TAFCMH
TAF
KCMH 251136Z 2512/2612 22005KT P6SM SCT040 BKN100
     FM251500 25012G18KT P6SM BKN035
     FM252100 28012G18KT P6SM SCT040
     FM260100 30010KT P6SM SKC=



000
FTUS41 KILN 251100
TAFDAY
TAF
KDAY 251136Z 2512/2612 23005KT P6SM SCT040 BKN100
     FM251400 23012G18KT P6SM BKN035
     FM251900 29012G18KT P6SM SCT040
     FM260000 30010KT P6SM SKC=



000
FTUS41 KILN 251100
TAFLUK
TAF
KLUK 251136Z 2512/2612 00000KT P6SM SCT090 BKN250
     FM251400 23010KT P6SM BKN035
     FM252000 28010G18KT P6SM SCT040
     FM260000 30006KT P6SM SKC=



000
FTUS41 KILN 251100
TAFCMH
TAF
KCMH 251136Z 2512/2612 22005KT P6SM SCT040 BKN100
     FM251500 25012G18KT P6SM BKN035
     FM252100 28012G18KT P6SM SCT040
     FM260100 30010KT P6SM SKC=



000
FTUS41 KILN 251100
TAFLCK
TAF
KLCK 251136Z 2512/2612 22005KT P6SM SCT040 BKN100
     FM251500 25012G18KT P6SM BKN035
     FM252100 28012G18KT P6SM SCT040
     FM260100 30010KT P6SM SKC=



000
FTUS41 KILN 251100
TAFCVG
TAF
KCVG 251136Z 2512/2618 23004KT P6SM SCT090 BKN250
     FM251400 23010KT P6SM BKN035
     FM252000 28010G18KT P6SM SCT040
     FM260000 30006KT P6SM SKC=



000
FTUS41 KILN 251100
TAFDAY
TAF
KDAY 251136Z 2512/2612 23005KT P6SM SCT040 BKN100
     FM251400 23012G18KT P6SM BKN035
     FM251900 29012G18KT P6SM SCT040
     FM260000 30010KT P6SM SKC=



000
FTUS41 KILN 251100
TAFLUK
TAF
KLUK 251136Z 2512/2612 00000KT P6SM SCT090 BKN250
     FM251400 23010KT P6SM BKN035
     FM252000 28010G18KT P6SM SCT040
     FM260000 30006KT P6SM SKC=



000
FTUS41 KILN 251100
TAFILN
TAF
KILN 251136Z 2512/2612 22004KT P6SM FEW040 BKN100
     FM251500 23012G18KT P6SM BKN035
     FM252000 29012G18KT P6SM SCT040
     FM260100 30008KT P6SM SKC=



000
FTUS41 KILN 250800 AAA
TAFCVG
TAF AMD
KCVG 250857Z 2509/2612 23004KT P6SM SCT090 BKN250
     FM251400 23010KT P6SM BKN035
     FM252000 28010G18KT P6SM SCT040
     FM260000 29006KT P6SM SKC=



000
FTUS41 KILN 250800 AAA
TAFLUK
TAF AMD
KLUK 250857Z 2509/2606 00000KT P6SM SCT090 BKN250
      TEMPO 2509/2512 2SM BR
     FM251400 23010KT P6SM BKN035
     FM252000 28010G18KT P6SM SCT040
     FM260000 29006KT P6SM SKC=



000
FTUS41 KILN 250500
TAFLUK
TAF
KLUK 250520Z 2506/2606 00000KT P6SM FEW040 SCT100
      TEMPO 2509/2512 2SM BR
     FM251400 23010KT P6SM BKN035
     FM252000 28010G18KT P6SM SCT040
     FM260000 29006KT P6SM SKC=



000
FTUS41 KILN 250500
TAFILN
TAF
KILN 250520Z 2506/2606 22004KT P6SM FEW040 BKN100
     FM251500 23012G18KT P6SM BKN035
     FM252000 29012G18KT P6SM SCT040
     FM260100 30008KT P6SM SKC=



000
FTUS41 KILN 250500
TAFCVG
TAF
KCVG 250520Z 2506/2612 23004KT P6SM FEW040 SCT100
     FM251400 23010KT P6SM BKN035
     FM252000 28010G18KT P6SM SCT040
     FM260000 29006KT P6SM SKC=



000
FTUS41 KILN 250500
TAFCMH
TAF
KCMH 250520Z 2506/2606 22005KT P6SM SCT040 BKN100
     FM251500 25012G18KT P6SM BKN035
     FM252100 28012G18KT P6SM SCT040
     FM260100 30010KT P6SM SKC=



000
FTUS41 KILN 250500
TAFDAY
TAF
KDAY 250520Z 2506/2606 23005KT P6SM SCT040 BKN100
     FM251400 23012G18KT P6SM BKN035
     FM251900 29012G18KT P6SM SCT040
     FM260000 30010KT P6SM SKC=



000
FTUS41 KILN 250500
TAFLCK
TAF
KLCK 250520Z 2506/2606 22005KT P6SM SCT040 BKN100
     FM251500 25012G18KT P6SM BKN035
     FM252100 28012G18KT P6SM SCT040
     FM260100 30010KT P6SM SKC=



000
FTUS41 KILN 242300
TAFLCK
TAF
KLCK 242337Z 2500/2524 20005KT P6SM SCT050 BKN200
     FM251100 20005KT P6SM BKN040
     FM251500 23010KT P6SM BKN035
     FM252100 29012KT P6SM SCT040=



000
FTUS41 KILN 242300
TAFDAY
TAF
KDAY 242337Z 2500/2524 22005KT P6SM SCT040 BKN200
     FM250900 21007KT P6SM BKN040
     FM251400 23012KT P6SM BKN035
     FM251900 29012KT P6SM SCT040=



000
FTUS41 KILN 242300
TAFCVG
TAF
KCVG 242337Z 2500/2606 22003KT P6SM SCT040 BKN250
     FM250900 21005KT P6SM BKN050
     FM251500 23010KT P6SM BKN035
     FM252000 28012KT P6SM SCT040
     FM260000 30006KT P6SM SKC=



000
FTUS41 KILN 242300
TAFCMH
TAF
KCMH 242337Z 2500/2524 20005KT P6SM SCT050 BKN200
     FM251100 20005KT P6SM BKN040
     FM251500 23010KT P6SM BKN035
     FM252100 29012KT P6SM SCT040=



000
FTUS41 KILN 242300
TAFLUK
TAF
KLUK 242337Z 2500/2524 VRB03KT P6SM SCT040 BKN250
     FM250900 21004KT P6SM BKN050
      TEMPO 2509/2512 2SM BR SCT050
     FM251500 23008KT P6SM BKN035
     FM252000 28008KT P6SM SCT040=



000
FTUS41 KILN 242300
TAFILN
TAF
KILN 242337Z 2500/2524 20004KT P6SM SCT040 BKN200
     FM251100 21006KT P6SM BKN050
     FM251500 23010KT P6SM BKN035
     FM252000 29011KT P6SM SCT040=



000
FTUS41 KILN 242100 AAA
TAFCVG
TAF AMD
KCVG 242101Z 2421/2524 26005KT P6SM FEW150
     FM242300 22003KT P6SM SCT050
     FM250900 21005KT P6SM BKN050
     FM251500 23010KT P6SM BKN035
     FM252000 28012KT P6SM SCT035=



000
FTUS41 KILN 241700 RRA
TAFLCK
TAF
KLCK 241743Z 2418/2518 24005KT P6SM FEW150
     FM250100 22004KT P6SM SCT050
     FM251100 20005KT P6SM BKN050
     FM251500 22010KT P6SM BKN035=



000
FTUS41 KILN 241700 RRA
TAFLUK
TAF
KLUK 241743Z 2418/2518 VRB03KT P6SM FEW150
     FM242300 VRB03KT P6SM SCT050
     FM250900 21004KT P6SM BKN050
      TEMPO 2509/2512 2SM BR
     FM251500 23010KT P6SM BKN035=



000
FTUS41 KILN 241700 RRA
TAFCMH
TAF
KCMH 241743Z 2418/2518 24005KT P6SM FEW150
     FM250100 22004KT P6SM SCT050
     FM251100 20005KT P6SM BKN050
     FM251500 22010KT P6SM BKN035=



000
FTUS41 KILN 241700 RRA
TAFILN
TAF
KILN 241743Z 2418/2518 24005KT P6SM FEW150
     FM250100 22004KT P6SM SCT050
     FM251100 21006KT P6SM BKN050
     FM251500 23010KT P6SM BKN035=



000
FTUS41 KILN 241700 RRA
TAFDAY
TAF
KDAY 241743Z 2418/2518 25006KT P6SM FEW150
     FM242300 22004KT P6SM SCT050
     FM250900 21007KT P6SM BKN050
     FM251400 23012KT P6SM BKN035=



000
FTUS41 KILN 241700 RRA
TAFCVG
TAF
KCVG 241743Z 2418/2524 26005KT P6SM FEW150
     FM242300 22003KT P6SM SCT050
     FM250900 21005KT P6SM BKN050
     FM251500 23010KT P6SM BKN035
     FM252000 28012KT P6SM SCT035=



000
FTUS41 KILN 241400 AAA
TAFCVG
TAF AMD
KCVG 241455Z 2415/2518 25005KT P6SM FEW150
     FM242100 25006KT P6SM SCT050
     FM250600 21006KT P6SM BKN035
     FM251500 23010KT P6SM SCT040=



000
FTUS41 KILN 241400 AAB
TAFLUK
TAF AMD
KLUK 241404Z 2414/2512 00000KT P6SM SCT200
      TEMPO 2414/2415 4SM BR BKN002
     FM241600 25005KT P6SM FEW150
     FM242100 25006KT P6SM SCT050
     FM250600 21004KT P6SM BKN035=



000
FTUS41 KILN 241400 AAB
TAFLUK
TAF AMD
KLUK 241404Z 2414/2512 00000KT P6SM SCT200
      TEMPO 2414/2415 4SM BR BKN002
     FM241600 25005KT P6SM FEW150
     FM242100 25006KT P6SM SCT050
     FM250600 21004KT P6SM BKN035=



000
FTUS41 KILN 241300 AAA
TAFLCK
TAF AMD
KLCK 241302Z 2413/2512 VRB03KT P6SM BKN200
      TEMPO 2413/2414 5SM BR
     FM241600 26005KT P6SM SKC
     FM242300 24003KT P6SM SCT040
     FM250800 21004KT P6SM BKN035=



000
FTUS41 KILN 241300 AAA
TAFDAY
TAF AMD
KDAY 241301Z 2413/2512 VRB03KT P6SM FEW200
      TEMPO 2413/2414 5SM BR
     FM241600 26005KT P6SM SCT050
     FM242300 23005KT P6SM SCT035
     FM250600 21004KT P6SM BKN035=



000
FTUS41 KILN 241300 AAA
TAFILN
TAF AMD
KILN 241301Z 2413/2512 VRB03KT P6SM BKN200
      TEMPO 2413/2414 5SM BR
     FM241600 26005KT P6SM FEW050
     FM242300 24004KT P6SM SCT040
     FM250700 21004KT P6SM BKN035=



000
FTUS41 KILN 241300 AAA
TAFLUK
TAF AMD
KLUK 241300Z 2413/2512 00000KT 5SM BR FEW003 SCT200
      TEMPO 2413/2414 2SM BR BKN002
     FM241400 25003KT P6SM SCT200
     FM241600 25005KT P6SM FEW150
     FM242100 25006KT P6SM SCT050
     FM250600 21004KT P6SM BKN035=



000
FTUS41 KILN 241100
TAFCVG
TAF
KCVG 241133Z 2412/2518 VRB03KT P6SM SCT200
      TEMPO 2412/2413 5SM BR
     FM241600 25005KT P6SM FEW150
     FM242100 25006KT P6SM SCT050
     FM250600 21006KT P6SM BKN035
     FM251500 23010KT P6SM SCT040=



000
FTUS41 KILN 241100
TAFCMH
TAF
KCMH 241133Z 2412/2512 VRB03KT P6SM BKN200
     FM241600 26005KT P6SM SKC
     FM242300 24003KT P6SM SCT040
     FM250800 21004KT P6SM BKN035=



000
FTUS41 KILN 241100
TAFILN
TAF
KILN 241133Z 2412/2512 VRB03KT P6SM BKN200
      TEMPO 2412/2413 5SM BR
     FM241600 26005KT P6SM FEW050
     FM242300 24004KT P6SM SCT040
     FM250700 21004KT P6SM BKN035=



000
FTUS41 KILN 241100
TAFDAY
TAF
KDAY 241133Z 2412/2512 VRB03KT P6SM FEW200
     FM241600 26005KT P6SM SCT050
     FM242300 23005KT P6SM SCT035
     FM250600 21004KT P6SM BKN035=



000
FTUS41 KILN 241100
TAFLCK
TAF
KLCK 241133Z 2412/2512 VRB03KT P6SM BKN200
      TEMPO 2412/2413 5SM BR
     FM241600 26005KT P6SM SKC
     FM242300 24003KT P6SM SCT040
     FM250800 21004KT P6SM BKN035=



000
FTUS41 KILN 241100
TAFLUK
TAF
KLUK 241133Z 2412/2512 00000KT 4SM BR FEW003 SCT200
      TEMPO 2412/2413 1/2SM FG OVC002
     FM241300 25003KT P6SM SCT200
     FM241600 25005KT P6SM FEW150
     FM242100 25006KT P6SM SCT050
     FM250600 21004KT P6SM BKN035=



000
FTUS41 KILN 241000 AAA
TAFCMH
TAF AMD
KCMH 241019Z 2410/2506 VRB03KT P6SM BKN200
     FM241500 26005KT P6SM SCT120
     FM242300 24003KT P6SM SCT040=



000
FTUS41 KILN 241000 AAA
TAFLCK
TAF AMD
KLCK 241019Z 2410/2506 VRB03KT P6SM BKN200
      TEMPO 2410/2413 5SM BR
     FM241500 26005KT P6SM SCT120
     FM242300 24003KT P6SM SCT040=



000
FTUS41 KILN 241000 AAB
TAFLUK
TAF AMD
KLUK 241019Z 2410/2506 00000KT 4SM BR FEW003
      TEMPO 2410/2413 1/4SM FG OVC002
     FM241400 25004KT P6SM FEW050 SCT100
     FM242300 25003KT P6SM SCT035=



000
FTUS41 KILN 241000 AAA
TAFDAY
TAF AMD
KDAY 241019Z 2410/2506 VRB03KT P6SM BKN200
     FM241500 26006KT P6SM FEW050 SCT100
     FM242300 23004KT P6SM SCT035=



000
FTUS41 KILN 241000 AAA
TAFILN
TAF AMD
KILN 241019Z 2410/2506 VRB03KT P6SM BKN200
      TEMPO 2411/2413 5SM BR
     FM241500 26005KT P6SM SCT100
     FM242300 24003KT P6SM SCT040=



000
FTUS41 KILN 241000 AAB
TAFCVG
TAF AMD
KCVG 241019Z 2410/2512 VRB03KT P6SM BKN200
     FM241500 25005KT P6SM FEW050 SCT100
     FM242300 23003KT P6SM SCT035
     FM250900 21006KT P6SM BKN035=



000
FTUS41 KILN 240900 AAA
TAFLUK
TAF AMD
KLUK 240900Z 2409/2506 00000KT P6SM FEW003
      TEMPO 2409/2412 5SM BR BKN003
     FM241500 25004KT P6SM FEW050 SCT100
     FM242300 25003KT P6SM SCT035=



000
FTUS41 KILN 240900 AAA
TAFCVG
TAF AMD
KCVG 240900Z 2409/2512 00000KT P6SM BKN200
     FM241500 25005KT P6SM FEW050 SCT100
     FM242300 23003KT P6SM SCT035
     FM250900 21006KT P6SM BKN035=



000
FTUS41 KILN 240500
TAFDAY
TAF
KDAY 240525Z 2406/2506 VRB03KT P6SM BKN200
     FM241500 26006KT P6SM FEW050 SCT100
     FM242300 23004KT P6SM SCT035=



000
FTUS41 KILN 240500
TAFLUK
TAF
KLUK 240525Z 2406/2506 00000KT P6SM BKN200
      TEMPO 2409/2412 5SM BR
     FM241500 25004KT P6SM FEW050 SCT100
     FM242300 25003KT P6SM SCT035=



000
FTUS41 KILN 240500
TAFLCK
TAF
KLCK 240525Z 2406/2506 VRB03KT P6SM BKN200
      TEMPO 2406/2409 5SM BR
     FM241500 26005KT P6SM SCT120
     FM242300 24003KT P6SM SCT040=



000
FTUS41 KILN 240500
TAFCVG
TAF
KCVG 240525Z 2406/2512 00000KT P6SM BKN200
     FM241500 25005KT P6SM FEW050 SCT100
     FM242300 23003KT P6SM SCT035
     FM250900 21006KT P6SM BKN035=



000
FTUS41 KILN 240500
TAFILN
TAF
KILN 240525Z 2406/2506 VRB03KT P6SM BKN200
     FM241500 26005KT P6SM SCT100
     FM242300 24003KT P6SM SCT040=



000
FTUS41 KILN 240500
TAFCMH
TAF
KCMH 240525Z 2406/2506 VRB03KT P6SM BKN200
     FM241500 26005KT P6SM SCT120
     FM242300 24003KT P6SM SCT040=



000
FTUS41 KILN 232300
TAFCVG
TAF
KCVG 232331Z 2400/2506 VRB03KT P6SM SCT110 BKN200
     FM241500 24005KT P6SM SCT050 BKN110
     FM242300 25003KT P6SM SCT030=



000
FTUS41 KILN 232300
TAFLUK
TAF
KLUK 232331Z 2400/2424 00000KT P6SM SCT110 BKN200
      TEMPO 2408/2412 2SM BR
     FM241500 24004KT P6SM SCT050 BKN110
     FM242300 25003KT P6SM SCT035=



000
FTUS41 KILN 232300
TAFLCK
TAF
KLCK 232331Z 2400/2424 VRB03KT P6SM SCT110 BKN200
     FM241500 24005KT P6SM SCT080 BKN150
     FM242300 25003KT P6SM SCT030=



000
FTUS41 KILN 232300
TAFCMH
TAF
KCMH 232331Z 2400/2424 VRB03KT P6SM SCT110 BKN200
     FM241500 24005KT P6SM SCT080 BKN150
     FM242300 25003KT P6SM SCT030=



000
FTUS41 KILN 232300
TAFDAY
TAF
KDAY 232331Z 2400/2424 VRB03KT P6SM SCT110 BKN200
     FM241500 23006KT P6SM SCT050 BKN110
     FM242300 25003KT P6SM SCT030=



000
FTUS41 KILN 232300
TAFILN
TAF
KILN 232331Z 2400/2424 VRB03KT P6SM SCT110 BKN200
     FM241500 24006KT P6SM SCT050 BKN110
     FM242300 25003KT P6SM SCT030=



000
FTUS41 KILN 232000 AAA
TAFLCK
TAF AMD
KLCK 232059Z 2321/2418 32004KT P6SM SCT200
     FM232300 VRB03KT P6SM BKN200=



000
FTUS41 KILN 232000 AAA
TAFCVG
TAF AMD
KCVG 232059Z 2321/2424 VRB03KT P6SM SCT150 BKN250
     FM232300 VRB03KT P6SM BKN150
     FM241600 24005KT P6SM BKN050=



000
FTUS41 KILN 232000 AAA
TAFCMH
TAF AMD
KCMH 232059Z 2321/2418 28005KT P6SM SCT200
     FM232300 VRB03KT P6SM BKN200=



000
FTUS41 KILN 232000 AAA
TAFILN
TAF AMD
KILN 232059Z 2321/2418 33003KT P6SM SCT150 BKN250
     FM232300 VRB03KT P6SM BKN150
     FM241600 24005KT P6SM BKN050=



000
FTUS41 KILN 232000 AAA
TAFDAY
TAF AMD
KDAY 232059Z 2321/2418 30003KT P6SM SCT150 BKN250
     FM232300 VRB03KT P6SM BKN150
     FM241600 23005KT P6SM BKN050=



000
FTUS41 KILN 232000 AAA
TAFLUK
TAF AMD
KLUK 232059Z 2321/2418 VRB03KT P6SM SCT150 BKN250
     FM232300 00000KT P6SM BKN150
      TEMPO 2408/2412 2SM BR
     FM241600 24004KT P6SM BKN050=



000
FTUS41 KILN 231700
TAFCVG
TAF
KCVG 231723Z 2318/2424 VRB03KT P6SM FEW035
     FM232300 VRB03KT P6SM BKN150
     FM241600 24005KT P6SM BKN050=



000
FTUS41 KILN 231700
TAFDAY
TAF
KDAY 231723Z 2318/2418 VRB03KT P6SM FEW035
     FM232300 VRB03KT P6SM BKN150
     FM241600 23005KT P6SM BKN050=



000
FTUS41 KILN 231700
TAFLCK
TAF
KLCK 231723Z 2318/2418 32005KT P6SM FEW035
     FM232300 VRB03KT P6SM BKN200=



000
FTUS41 KILN 231700
TAFCMH
TAF
KCMH 231723Z 2318/2418 34005KT P6SM FEW035
     FM232300 VRB03KT P6SM BKN200=



000
FTUS41 KILN 231700
TAFILN
TAF
KILN 231723Z 2318/2418 VRB03KT P6SM FEW035
     FM232300 VRB03KT P6SM BKN150
     FM241600 24005KT P6SM BKN050=



000
FTUS41 KILN 231700
TAFLUK
TAF
KLUK 231723Z 2318/2418 VRB03KT P6SM FEW035
     FM232300 00000KT P6SM BKN150
      TEMPO 2408/2412 2SM BR
     FM241600 24004KT P6SM BKN050=



000
FTUS41 KILN 231500 AAE
TAFCMH
TAF AMD
KCMH 231502Z 2315/2412 33006KT P6SM SCT015
     FM231800 34006KT P6SM SCT250
     FM240400 VRB03KT P6SM BKN200=



000
FTUS41 KILN 231500 AAB
TAFLCK
TAF AMD
KLCK 231502Z 2315/2412 36006KT P6SM SCT015
     FM231800 30005KT P6SM SCT250
     FM240400 VRB03KT P6SM BKN200=



000
FTUS41 KILN 231400 AAA
TAFCVG
TAF AMD
KCVG 231455Z 2315/2418 29004KT P6SM SCT250
     FM240300 VRB03KT P6SM BKN200
     FM241200 24004KT P6SM BKN050=



000
FTUS41 KILN 231400 AAC
TAFDAY
TAF AMD
KDAY 231403Z 2314/2412 30005KT P6SM SCT250
      TEMPO 2314/2315 5SM BR SCT002
     FM240300 VRB03KT P6SM BKN200=



000
FTUS41 KILN 231400 AAD
TAFCMH
TAF AMD
KCMH 231402Z 2314/2412 34006KT 5SM BR BKN005
     FM231600 33006KT P6SM SCT025
     FM231800 30005KT P6SM SCT250
     FM240400 VRB03KT P6SM BKN200=



000
FTUS41 KILN 231400 AAA
TAFLCK
TAF AMD
KLCK 231401Z 2314/2412 34006KT 5SM BR BKN005
     FM231600 33006KT P6SM SCT025
     FM231800 30005KT P6SM SCT250
     FM240400 VRB03KT P6SM BKN200=



000
FTUS41 KILN 231300 AAA
TAFILN
TAF AMD
KILN 231307Z 2313/2412 VRB03KT P6SM SKC
      TEMPO 2313/2314 5SM BR
     FM231500 30005KT P6SM SCT250
     FM240400 VRB03KT P6SM BKN200=



000
FTUS41 KILN 231300 AAC
TAFLUK
TAF AMD
KLUK 231307Z 2313/2412 VRB03KT P6SM SCT250
     FM240300 00000KT P6SM BKN200
     FM240600 00000KT 3SM BR BKN200
      TEMPO 2408/2412 1/4SM FG VV002=



000
FTUS41 KILN 231300 AAC
TAFCMH
TAF AMD
KCMH 231307Z 2313/2412 34005KT 2SM BR OVC003
      TEMPO 2313/2314 1SM BR
     FM231500 30005KT P6SM SCT250
     FM240400 VRB03KT P6SM BKN200=



000
FTUS41 KILN 231300 AAB
TAFDAY
TAF AMD
KDAY 231306Z 2313/2412 VRB03KT 4SM BR SKC
      TEMPO 2313/2314 1/2SM FG VV002
     FM231400 30005KT P6SM SCT250
     FM240300 VRB03KT P6SM BKN200=



000
FTUS41 KILN 231200 AAB
TAFCMH
TAF AMD
KCMH 231215Z 2312/2412 34005KT 2SM BR OVC003
      TEMPO 2312/2313 1SM BR
     FM231500 30005KT P6SM SCT250
     FM240400 VRB03KT P6SM BKN200=



000
FTUS41 KILN 231200 AAB
TAFLUK
TAF AMD
KLUK 231213Z 2312/2412 VRB03KT 2SM BR SKC
      TEMPO 2312/2313 1/4SM FG VV001
     FM231400 29004KT P6SM SCT250
     FM240300 00000KT P6SM BKN200
     FM240600 00000KT 3SM BR BKN200
      TEMPO 2408/2412 1/4SM FG VV002=



000
FTUS41 KILN 231200 AAA
TAFLUK
TAF AMD
KLUK 231205Z 2312/2412 VRB03KT 5SM BR SKC
      TEMPO 2312/2313 1SM BR
     FM231400 29004KT P6SM SCT250
     FM240300 00000KT P6SM BKN200
     FM240600 00000KT 3SM BR BKN200
      TEMPO 2408/2412 1/4SM FG VV002=



000
FTUS41 KILN 231100 AAA
TAFDAY
TAF AMD
KDAY 231159Z 2312/2412 VRB03KT 4SM BR SKC
      TEMPO 2312/2313 1SM BR
     FM231400 30005KT P6SM SCT250
     FM240300 VRB03KT P6SM BKN200=



000
FTUS41 KILN 231100 AAA
TAFCMH
TAF AMD
KCMH 231158Z 2312/2412 34005KT P6SM OVC004
      TEMPO 2312/2314 5SM BR
     FM231500 30005KT P6SM SCT250
     FM240400 VRB03KT P6SM BKN200=



000
FTUS41 KILN 231100
TAFCMH
TAF
KCMH 231133Z 2312/2412 34005KT P6SM SCT007
      TEMPO 2312/2314 BKN007
     FM231500 30005KT P6SM SCT250
     FM240400 VRB03KT P6SM BKN200=



000
FTUS41 KILN 231100
TAFLUK
TAF
KLUK 231133Z 2312/2412 VRB03KT P6SM SKC
     FM231500 29004KT P6SM SCT250
     FM240300 00000KT P6SM BKN200
     FM240600 00000KT 3SM BR BKN200
      TEMPO 2408/2412 1/4SM FG VV002=



000
FTUS41 KILN 231100
TAFCVG
TAF
KCVG 231133Z 2312/2418 31005KT P6SM SKC
      TEMPO 2312/2313 5SM BR
     FM231500 29004KT P6SM SCT250
     FM240300 VRB03KT P6SM BKN200
     FM241200 24004KT P6SM BKN050=



000
FTUS41 KILN 231100
TAFLCK
TAF
KLCK 231133Z 2312/2412 34005KT P6SM SCT007
      TEMPO 2312/2314 BKN007
     FM231500 30005KT P6SM SCT250
     FM240400 VRB03KT P6SM BKN200=



000
FTUS41 KILN 231100
TAFILN
TAF
KILN 231133Z 2312/2412 VRB03KT P6SM SKC
      TEMPO 2312/2313 5SM BR
     FM231500 30005KT P6SM SCT250
     FM240400 VRB03KT P6SM BKN200=



000
FTUS41 KILN 231100
TAFDAY
TAF
KDAY 231133Z 2312/2412 VRB03KT P6SM SKC
      TEMPO 2312/2313 5SM BR
     FM231500 30005KT P6SM SCT250
     FM240300 VRB03KT P6SM BKN200=



000
FTUS41 KILN 231000 AAB
TAFCVG
TAF AMD
KCVG 231012Z 2310/2412 31006KT P6SM SKC
     FM231500 29004KT P6SM SCT250
     FM240300 VRB03KT P6SM BKN250=



000
FTUS41 KILN 231000 AAA
TAFLUK
TAF AMD
KLUK 231012Z 2310/2406 00000KT P6SM OVC035
     FM231100 00000KT P6SM SKC
     FM231500 VRB03KT P6SM SCT250
     FM240300 VRB03KT P6SM BKN250=



000
FTUS41 KILN 231000 AAC
TAFDAY
TAF AMD
KDAY 231011Z 2310/2406 00000KT 4SM BR FEW030
     FM231200 VRB03KT P6SM SKC
     FM231500 30005KT P6SM SCT250
     FM240300 VRB03KT P6SM BKN250=



000
FTUS41 KILN 230900 AAA
TAFILN
TAF AMD
KILN 230931Z 2310/2406 34005KT P6SM FEW030
     FM231500 30005KT P6SM SCT250
     FM240400 VRB03KT P6SM BKN250=



000
FTUS41 KILN 230900 AAB
TAFDAY
TAF AMD
KDAY 230931Z 2310/2406 VRB03KT P6SM SCT035
     FM231500 30005KT P6SM SCT250
     FM240300 VRB03KT P6SM BKN250=



000
FTUS41 KILN 230800 AAA
TAFDAY
TAF AMD
KDAY 230812Z 2308/2406 36004KT P6SM OVC030
     FM231000 VRB03KT P6SM SCT035
     FM231500 30005KT P6SM SCT250
     FM240300 VRB03KT P6SM BKN250=



000
FTUS41 KILN 230800 AAA
TAFDAY
TAF AMD
KDAY 230812Z 2308/2406 36004KT P6SM OVC030
     FM231000 VRB03KT P6SM SCT035
     FM231500 30005KT P6SM SCT250
     FM240300 VRB03KT P6SM BKN250=



000
FTUS41 KILN 230800 AAA
TAFCVG
TAF AMD
KCVG 230811Z 2308/2412 36003KT P6SM OVC030
     FM231100 VRB03KT P6SM SCT035
     FM231500 29004KT P6SM SCT250
     FM240300 VRB03KT P6SM BKN250=



000
FTUS41 KILN 230800 AAA
TAFCVG
TAF AMD
KCVG 230811Z 2308/2412 36003KT P6SM OVC030
     FM231100 VRB03KT P6SM SCT035
     FM231500 29004KT P6SM SCT250
     FM240300 VRB03KT P6SM BKN250=



000
FTUS41 KILN 230500
TAFCMH
TAF
KCMH 230531Z 2306/2406 31005KT P6SM SCT035
     FM230800 34004KT P6SM BKN035
     FM231000 VRB03KT P6SM SCT035
     FM231400 33005KT P6SM SCT250
     FM240400 VRB03KT P6SM BKN250=



000
FTUS41 KILN 230500
TAFLCK
TAF
KLCK 230531Z 2306/2406 31005KT P6SM SCT035
     FM230800 34004KT P6SM BKN035
     FM231000 VRB03KT P6SM SCT035
     FM231400 33005KT P6SM SCT250
     FM240400 VRB03KT P6SM BKN250=



000
FTUS41 KILN 230500
TAFDAY
TAF
KDAY 230531Z 2306/2406 VRB03KT P6SM OVC035
      TEMPO 2306/2308 OVC025
     FM230900 VRB03KT P6SM SCT035
     FM231500 30005KT P6SM SCT250
     FM240300 VRB03KT P6SM BKN250=



000
FTUS41 KILN 230500
TAFILN
TAF
KILN 230531Z 2306/2406 VRB03KT P6SM OVC035
      TEMPO 2306/2308 OVC025
     FM230800 VRB03KT P6SM SCT035
      TEMPO 2309/2311 5SM BR
     FM231500 30005KT P6SM SCT250
     FM240400 VRB03KT P6SM BKN250=



000
FTUS41 KILN 230500
TAFCVG
TAF
KCVG 230531Z 2306/2412 04005KT P6SM BKN035
      TEMPO 2306/2307 BKN025
     FM231000 VRB03KT P6SM SCT035
     FM231500 29004KT P6SM SCT250
     FM240300 VRB03KT P6SM BKN250=



000
FTUS41 KILN 230500
TAFLUK
TAF
KLUK 230531Z 2306/2406 00000KT P6SM OVC035
     FM230900 00000KT P6SM SKC
      TEMPO 2309/2312 4SM BR
     FM231200 VRB03KT P6SM SCT250
     FM240300 VRB03KT P6SM BKN250=



000
FTUS41 KILN 230200 AAA
TAFLCK
TAF AMD
KLCK 230217Z 2302/2324 01005KT P6SM OVC035
     FM231100 02004KT P6SM SCT025
     FM231300 33005KT P6SM SCT250=



000
FTUS41 KILN 230200 AAA
TAFLCK
TAF AMD
KLCK 230217Z 2302/2324 01005KT P6SM OVC035
     FM231100 02004KT P6SM SCT025
     FM231300 33005KT P6SM SCT250=



000
FTUS41 KILN 230200 AAA
TAFCMH
TAF AMD
KCMH 230216Z 2302/2324 01005KT P6SM SCT025 OVC035
     FM231000 02004KT P6SM SCT025
     FM231300 33005KT P6SM SCT250
     FM232300 VRB03KT P6SM SCT250=



000
FTUS41 KILN 230200 AAB
TAFCVG
TAF AMD
KCVG 230216Z 2302/2406 01006KT P6SM BKN030
     FM230500 03004KT P6SM FEW035
     FM231500 29006KT P6SM SCT250
     FM240200 VRB03KT P6SM SCT250=



000
FTUS41 KILN 230200 AAB
TAFCVG
TAF AMD
KCVG 230216Z 2302/2406 01006KT P6SM BKN030
     FM230500 03004KT P6SM FEW035
     FM231500 29006KT P6SM SCT250
     FM240200 VRB03KT P6SM SCT250=



000
FTUS41 KILN 230200 AAA
TAFCMH
TAF AMD
KCMH 230216Z 2302/2324 01005KT P6SM SCT025 OVC035
     FM231000 02004KT P6SM SCT025
     FM231300 33005KT P6SM SCT250
     FM232300 VRB03KT P6SM SCT250=



000
FTUS41 KILN 230000 AAA
TAFDAY
TAF AMD
KDAY 230049Z 2301/2324 01006KT P6SM OVC020
     FM230500 03004KT P6SM SCT025
     FM230600 04004KT P6SM SKC
     FM231500 30006KT P6SM SCT250=



000
FTUS41 KILN 230000 AAA
TAFDAY
TAF AMD
KDAY 230049Z 2301/2324 01006KT P6SM OVC020
     FM230500 03004KT P6SM SCT025
     FM230600 04004KT P6SM SKC
     FM231500 30006KT P6SM SCT250=



000
FTUS41 KILN 230000 AAB
TAFLUK
TAF AMD
KLUK 230047Z 2301/2324 06004KT P6SM OVC030
     FM230600 VRB03KT P6SM SKC
     FM230800 00000KT 4SM BR SKC
     FM231300 VRB03KT P6SM SCT250=



000
FTUS41 KILN 230000 AAB
TAFLUK
TAF AMD
KLUK 230047Z 2301/2324 06004KT P6SM OVC030
     FM230600 VRB03KT P6SM SKC
     FM230800 00000KT 4SM BR SKC
     FM231300 VRB03KT P6SM SCT250=



000
FTUS41 KILN 230000 AAA
TAFCVG
TAF AMD
KCVG 230016Z 2300/2406 01006KT P6SM BKN030
     FM230700 03004KT P6SM FEW035
     FM231500 29006KT P6SM SCT250
     FM240200 VRB03KT P6SM SCT250=



000
FTUS41 KILN 230000 AAA
TAFLUK
TAF AMD
KLUK 230016Z 2300/2324 06004KT P6SM OVC035
     FM230700 VRB03KT P6SM SKC
     FM230800 00000KT 4SM BR SKC
     FM231300 VRB03KT P6SM SCT250=



000
FTUS41 KILN 230000 AAA
TAFCVG
TAF AMD
KCVG 230016Z 2300/2406 01006KT P6SM BKN030
     FM230700 03004KT P6SM FEW035
     FM231500 29006KT P6SM SCT250
     FM240200 VRB03KT P6SM SCT250=



000
FTUS41 KILN 230000 AAA
TAFLUK
TAF AMD
KLUK 230016Z 2300/2324 06004KT P6SM OVC035
     FM230700 VRB03KT P6SM SKC
     FM230800 00000KT 4SM BR SKC
     FM231300 VRB03KT P6SM SCT250=



000
FTUS41 KILN 222300 CCA
TAFLUK
TAF COR
KLUK 222348Z 2300/2324 06004KT P6SM OVC035
     FM230400 VRB03KT P6SM SKC
     FM230800 00000KT 4SM BR SKC
     FM231300 VRB03KT P6SM SCT250=



000
FTUS41 KILN 222300 CCA
TAFCVG
TAF COR
KCVG 222348Z 2300/2406 01006KT P6SM BKN030
     FM230400 03004KT P6SM FEW035
     FM231500 29006KT P6SM SCT250
     FM240200 VRB03KT P6SM SCT250=



000
FTUS41 KILN 222300 CCA
TAFCVG
TAF COR
KCVG 222348Z 2300/2406 01006KT P6SM BKN030
     FM230400 03004KT P6SM FEW035
     FM231500 29006KT P6SM SCT250
     FM240200 VRB03KT P6SM SCT250=



000
FTUS41 KILN 222300 CCA
TAFLUK
TAF COR
KLUK 222348Z 2300/2324 06004KT P6SM OVC035
     FM230400 VRB03KT P6SM SKC
     FM230800 00000KT 4SM BR SKC
     FM231300 VRB03KT P6SM SCT250=



000
FTUS41 KILN 222300 CCA
TAFLCK
TAF COR
KLCK 222343Z 2300/2324 01005KT P6SM BKN030
     FM231100 02004KT P6SM SCT025
     FM231300 33005KT P6SM SCT250=



000
FTUS41 KILN 222300 RRA
TAFLCK
TAF
KLCK 222342Z 2300/2324 01005KT P6SM BKN025
     FM231100 02004KT P6SM SCT025
     FM231300 33005KT P6SM SCT250=



000
FTUS41 KILN 222300 RRA
TAFCMH
TAF
KCMH 222342Z 2300/2324 01005KT P6SM OVC030
     FM231100 02004KT P6SM SCT025
     FM231300 33005KT P6SM SCT250
     FM232300 VRB03KT P6SM SCT250=



000
FTUS41 KILN 222300 RRA
TAFLUK
TAF
KLUK 222342Z 2300/2324 06004KT P6SM OVC035
     FM230300 VRB03KT P6SM SKC
     FM230800 00000KT 4SM BR SKC
     FM231300 VRB03KT P6SM SCT250=



000
FTUS41 KILN 222300 RRA
TAFILN
TAF
KILN 222342Z 2300/2324 01006KT P6SM BKN025
     FM230600 03004KT P6SM SCT025
     FM230800 VRB03KT P6SM SKC
      TEMPO 2309/2311 5SM BR
     FM231500 31005KT P6SM SCT250
     FM232000 VRB03KT P6SM SCT250=



000
FTUS41 KILN 222300 RRA
TAFCVG
TAF
KCVG 222342Z 2300/2406 01006KT P6SM BKN030
     FM230200 03004KT P6SM FEW035
     FM231500 29006KT P6SM SCT250
     FM240200 VRB03KT P6SM SCT250=



000
FTUS41 KILN 222300 RRA
TAFDAY
TAF
KDAY 222342Z 2300/2324 01006KT P6SM OVC015
     FM230700 04004KT P6SM SKC
     FM231500 30006KT P6SM SCT250=



000
FTUS41 KILN 222100 AAA
TAFCVG
TAF AMD
KCVG 222136Z 2222/2324 36012KT P6SM BKN030
     FM222300 01006KT P6SM SCT035
     FM230100 03004KT P6SM SKC
     FM231500 29006KT P6SM SCT250=



    US Dept of Commerce
    National Oceanic and Atmospheric Administration
    National Weather Service
    1325 East West Highway
    Silver Spring, MD 20910
    Page Author: NWS Internet Services Team
Disclaimer
Information Quality
Credits
Glossary
Privacy Policy
Freedom of Information Act (FOIA)
About Us
Career Opportunities